Time,TemperatureF,DewpointF,PressureIn,WindDirection,WindDirectionDegrees,WindSpeedMPH,WindSpeedGustMPH,Humidity,HourlyPrecipIn,Conditions,Clouds,dailyrainin,SoftwareType,DateUTC
2013-03-18 00:04:00,48.4,40.5,30.08,NNW,331,0.0,2.0,74,0.00,,---,0.00,VWS V14.01,2013-03-18 07:04:00,
2013-03-18 00:09:00,48.1,40.2,30.08,NNW,331,0.0,2.0,74,0.00,,---,0.00,VWS V14.01,2013-03-18 07:09:00,
2013-03-18 00:14:00,47.9,40.0,30.09,NNW,331,0.0,2.0,74,0.00,,---,0.00,VWS V14.01,2013-03-18 07:14:00,
2013-03-18 00:19:00,47.8,40.6,30.07,NNW,331,1.0,4.0,76,0.00,,---,0.00,VWS V14.01,2013-03-18 07:19:00,
2013-03-18 00:24:00,47.6,40.4,30.06,NNW,331,0.0,4.0,76,0.00,,---,0.00,VWS V14.01,2013-03-18 07:24:00,
2013-03-18 00:29:00,47.5,40.3,30.10,NNW,331,0.0,4.0,76,0.00,,---,0.00,VWS V14.01,2013-03-18 07:29:00,
2013-03-18 00:34:00,47.4,40.2,30.07,NNW,331,0.0,2.0,76,0.00,,---,0.00,VWS V14.01,2013-03-18 07:34:00,
2013-03-18 00:39:00,47.2,40.0,30.07,NNW,331,0.0,2.0,76,0.00,,---,0.00,VWS V14.01,2013-03-18 07:39:00,
2013-03-18 00:45:00,46.9,39.7,30.07,NNW,331,0.0,2.0,76,0.00,,---,0.00,VWS V14.01,2013-03-18 07:45:00,
2013-03-18 00:50:00,46.8,39.7,30.07,NNW,331,0.0,2.0,76,0.00,,---,0.00,VWS V14.01,2013-03-18 07:50:00,
2013-03-18 00:55:00,46.4,39.3,30.09,NNW,331,1.0,3.0,76,0.00,,---,0.00,VWS V14.01,2013-03-18 07:55:00,
2013-03-18 01:00:00,46.2,39.4,30.04,NNW,331,1.0,2.0,77,0.00,,---,0.00,VWS V14.01,2013-03-18 08:00:00,
2013-03-18 01:05:00,46.2,39.4,30.07,NNW,331,0.0,3.0,77,0.00,,---,0.00,VWS V14.01,2013-03-18 08:05:00,
2013-03-18 01:10:00,45.9,39.1,30.08,NNW,331,0.0,3.0,77,0.00,,---,0.00,VWS V14.01,2013-03-18 08:10:00,
2013-03-18 01:15:00,45.7,38.9,30.08,NNW,331,0.0,3.0,77,0.00,,---,0.00,VWS V14.01,2013-03-18 08:15:00,
2013-03-18 01:20:00,45.4,38.6,30.09,NNW,331,0.0,3.0,77,0.00,,---,0.00,VWS V14.01,2013-03-18 08:20:00,
2013-03-18 01:25:00,45.3,38.9,30.06,NNW,331,0.0,3.0,78,0.00,,---,0.00,VWS V14.01,2013-03-18 08:25:00,
2013-03-18 01:30:00,45.0,38.2,30.06,NNW,331,2.0,2.0,77,0.00,,---,0.00,VWS V14.01,2013-03-18 08:30:00,
2013-03-18 01:35:00,44.8,38.7,30.07,NNW,331,0.0,4.0,79,0.00,,---,0.00,VWS V14.01,2013-03-18 08:35:00,
2013-03-18 01:40:00,44.4,38.3,30.08,NNW,331,0.0,4.0,79,0.00,,---,0.00,VWS V14.01,2013-03-18 08:40:00,
2013-03-18 01:45:00,44.5,38.4,30.07,NNW,331,1.0,4.0,79,0.00,,---,0.00,VWS V14.01,2013-03-18 08:45:00,
2013-03-18 01:50:00,44.3,38.2,30.08,NNW,331,1.0,4.0,79,0.00,,---,0.00,VWS V14.01,2013-03-18 08:50:00,
2013-03-18 01:55:00,44.2,38.1,30.06,NNW,331,0.0,4.0,79,0.00,,---,0.00,VWS V14.01,2013-03-18 08:55:00,
2013-03-18 02:00:00,44.1,38.0,30.08,NNW,331,0.0,1.0,79,0.00,,---,0.00,VWS V14.01,2013-03-18 09:00:00,
2013-03-18 02:06:00,43.9,38.1,30.08,NNW,331,0.0,2.0,80,0.00,,---,0.00,VWS V14.01,2013-03-18 09:06:00,
2013-03-18 02:11:00,43.9,38.1,30.08,NNW,331,0.0,2.0,80,0.00,,---,0.00,VWS V14.01,2013-03-18 09:11:00,
2013-03-18 02:16:00,43.9,38.1,30.08,NNW,331,0.0,3.0,80,0.00,,---,0.00,VWS V14.01,2013-03-18 09:16:00,
2013-03-18 02:21:00,43.9,38.1,30.07,NNW,331,0.0,3.0,80,0.00,,---,0.00,VWS V14.01,2013-03-18 09:21:00,
2013-03-18 02:26:00,43.9,38.1,30.05,NNW,331,0.0,3.0,80,0.00,,---,0.00,VWS V14.01,2013-03-18 09:26:00,
2013-03-18 02:31:00,43.7,38.0,30.08,NNW,331,0.0,0.0,80,0.00,,---,0.00,VWS V14.01,2013-03-18 09:31:00,
2013-03-18 02:36:00,43.8,38.0,30.06,NNW,331,0.0,0.0,80,0.00,,---,0.00,VWS V14.01,2013-03-18 09:36:00,
2013-03-18 02:41:00,43.6,37.8,30.09,NNW,331,0.0,1.0,80,0.00,,---,0.00,VWS V14.01,2013-03-18 09:41:00,
2013-03-18 02:47:00,43.6,38.2,30.05,NNW,331,2.0,3.0,81,0.00,,---,0.00,VWS V14.01,2013-03-18 09:47:00,
2013-03-18 02:52:00,43.6,37.8,30.07,NNW,331,0.0,3.0,80,0.00,,---,0.00,VWS V14.01,2013-03-18 09:52:00,
2013-03-18 02:57:00,43.6,37.8,30.06,NNW,331,0.0,3.0,80,0.00,,---,0.00,VWS V14.01,2013-03-18 09:57:00,
2013-03-18 03:02:00,43.6,38.2,30.06,NNW,331,0.0,0.0,81,0.00,,---,0.00,VWS V14.01,2013-03-18 10:02:00,
2013-03-18 03:07:00,43.7,38.3,30.05,NNW,331,0.0,0.0,81,0.00,,---,0.00,VWS V14.01,2013-03-18 10:07:00,
2013-03-18 03:12:00,43.5,37.8,30.07,NNW,331,0.0,1.0,80,0.00,,---,0.00,VWS V14.01,2013-03-18 10:12:00,
2013-03-18 03:17:00,43.4,37.7,30.07,NNW,331,0.0,1.0,80,0.00,,---,0.00,VWS V14.01,2013-03-18 10:17:00,
2013-03-18 03:22:00,43.3,37.9,30.06,NNW,331,0.0,1.0,81,0.00,,---,0.00,VWS V14.01,2013-03-18 10:22:00,
2013-03-18 03:27:00,43.2,37.8,30.04,NNW,331,0.0,2.0,81,0.00,,---,0.00,VWS V14.01,2013-03-18 10:27:00,
2013-03-18 03:32:00,43.0,37.3,30.05,NNW,331,0.0,2.0,80,0.00,,---,0.00,VWS V14.01,2013-03-18 10:32:00,
2013-03-18 03:37:00,42.9,37.2,30.06,NNW,331,0.0,2.0,80,0.00,,---,0.00,VWS V14.01,2013-03-18 10:37:00,
2013-03-18 03:42:00,42.8,37.1,30.07,NNW,331,1.0,3.0,80,0.00,,---,0.00,VWS V14.01,2013-03-18 10:42:00,
2013-03-18 03:47:00,42.6,37.2,30.05,NNW,331,0.0,3.0,81,0.00,,---,0.00,VWS V14.01,2013-03-18 10:47:00,
2013-03-18 03:53:00,42.4,36.7,30.05,NNW,331,1.0,3.0,80,0.00,,---,0.00,VWS V14.01,2013-03-18 10:53:00,
2013-03-18 03:58:00,42.3,36.9,30.05,NNW,331,0.0,3.0,81,0.00,,---,0.00,VWS V14.01,2013-03-18 10:58:00,
2013-03-18 04:03:00,42.2,36.8,30.04,NNW,331,1.0,2.0,81,0.00,,---,0.00,VWS V14.01,2013-03-18 11:03:00,
2013-03-18 04:08:00,42.1,36.7,30.05,NNW,331,0.0,2.0,81,0.00,,---,0.00,VWS V14.01,2013-03-18 11:08:00,
2013-03-18 04:13:00,42.0,36.9,30.04,NNW,331,0.0,2.0,82,0.00,,---,0.00,VWS V14.01,2013-03-18 11:13:00,
2013-03-18 04:18:00,41.9,36.8,30.05,NNW,331,0.0,2.0,82,0.00,,---,0.00,VWS V14.01,2013-03-18 11:18:00,
2013-03-18 04:23:00,41.8,36.7,30.05,NNW,331,0.0,2.0,82,0.00,,---,0.00,VWS V14.01,2013-03-18 11:23:00,
2013-03-18 04:28:00,41.9,36.8,30.05,NNW,331,0.0,2.0,82,0.00,,---,0.00,VWS V14.01,2013-03-18 11:28:00,
2013-03-18 04:33:00,41.7,36.6,30.04,NNW,331,0.0,0.0,82,0.00,,---,0.00,VWS V14.01,2013-03-18 11:33:00,
2013-03-18 04:38:00,41.8,36.7,30.05,NNW,331,0.0,1.0,82,0.00,,---,0.00,VWS V14.01,2013-03-18 11:38:00,
2013-03-18 04:43:00,41.6,36.2,30.06,NNW,331,0.0,2.0,81,0.00,,---,0.00,VWS V14.01,2013-03-18 11:43:00,
2013-03-18 04:48:00,41.7,36.6,30.04,NNW,331,2.0,3.0,82,0.00,,---,0.00,VWS V14.01,2013-03-18 11:48:00,
2013-03-18 04:53:00,41.5,36.4,30.06,NNW,331,0.0,3.0,82,0.00,,---,0.00,VWS V14.01,2013-03-18 11:53:00,
2013-03-18 04:59:00,41.3,36.2,30.03,NNW,331,0.0,3.0,82,0.00,,---,0.00,VWS V14.01,2013-03-18 11:59:00,
2013-03-18 05:04:00,41.3,36.2,30.06,NNW,331,0.0,3.0,82,0.00,,---,0.00,VWS V14.01,2013-03-18 12:04:00,
2013-03-18 05:09:00,41.2,36.1,30.05,NNW,331,0.0,3.0,82,0.00,,---,0.00,VWS V14.01,2013-03-18 12:09:00,
2013-03-18 05:14:00,41.1,36.0,30.05,NNW,331,0.0,3.0,82,0.00,,---,0.00,VWS V14.01,2013-03-18 12:14:00,
2013-03-18 05:19:00,40.9,35.8,30.02,NNW,331,0.0,3.0,82,0.00,,---,0.00,VWS V14.01,2013-03-18 12:19:00,
2013-03-18 05:24:00,40.9,35.8,30.06,NNW,331,0.0,3.0,82,0.00,,---,0.00,VWS V14.01,2013-03-18 12:24:00,
2013-03-18 05:29:00,40.9,35.8,30.07,NNW,331,1.0,3.0,82,0.00,,---,0.00,VWS V14.01,2013-03-18 12:29:00,
2013-03-18 05:34:00,40.8,36.0,30.05,NNW,331,0.0,3.0,83,0.00,,---,0.00,VWS V14.01,2013-03-18 12:34:00,
2013-03-18 05:39:00,40.7,36.0,30.06,NNW,331,1.0,3.0,83,0.00,,---,0.00,VWS V14.01,2013-03-18 12:39:00,
2013-03-18 05:44:00,40.8,36.0,30.08,NNW,331,0.0,3.0,83,0.00,,---,0.00,VWS V14.01,2013-03-18 12:44:00,
2013-03-18 05:49:00,40.8,36.0,30.05,NNW,331,0.0,3.0,83,0.00,,---,0.00,VWS V14.01,2013-03-18 12:49:00,
2013-03-18 05:54:00,40.7,36.0,30.07,NNW,331,0.0,3.0,83,0.00,,---,0.00,VWS V14.01,2013-03-18 12:54:00,
2013-03-18 05:59:00,40.7,36.0,30.06,NNW,331,0.0,3.0,83,0.00,,---,0.00,VWS V14.01,2013-03-18 12:59:00,
2013-03-18 06:04:00,40.8,36.0,30.07,NNW,331,0.0,0.0,83,0.00,,---,0.00,VWS V14.01,2013-03-18 13:04:00,
2013-03-18 06:09:00,40.7,36.0,30.06,NNW,331,0.0,0.0,83,0.00,,---,0.00,VWS V14.01,2013-03-18 13:09:00,
2013-03-18 06:14:00,40.7,36.0,30.05,NNW,331,0.0,2.0,83,0.00,,---,0.00,VWS V14.01,2013-03-18 13:14:00,
2013-03-18 06:20:00,40.7,36.0,30.05,NNW,331,0.0,2.0,83,0.00,,---,0.00,VWS V14.01,2013-03-18 13:20:00,
2013-03-18 06:25:00,40.6,35.5,30.05,NNW,331,0.0,2.0,82,0.00,,---,0.00,VWS V14.01,2013-03-18 13:25:00,
2013-03-18 06:30:00,40.4,35.3,30.04,NNW,331,2.0,2.0,82,0.00,,---,0.00,VWS V14.01,2013-03-18 13:30:00,
2013-03-18 06:35:00,40.4,35.3,30.05,NNW,331,0.0,3.0,82,0.00,,---,0.00,VWS V14.01,2013-03-18 13:35:00,
2013-03-18 06:40:00,40.2,35.2,30.05,NNW,331,0.0,3.0,82,0.00,,---,0.00,VWS V14.01,2013-03-18 13:40:00,
2013-03-18 06:45:00,40.0,35.3,30.04,NNW,331,1.0,3.0,83,0.00,,---,0.00,VWS V14.01,2013-03-18 13:45:00,
2013-03-18 06:50:00,39.9,34.9,30.07,NNW,331,1.0,3.0,82,0.00,,---,0.00,VWS V14.01,2013-03-18 13:50:00,
2013-03-18 06:55:00,39.9,35.2,30.06,NNW,331,1.0,3.0,83,0.00,,---,0.00,VWS V14.01,2013-03-18 13:55:00,
2013-03-18 07:00:00,39.8,35.1,30.07,NNW,331,0.0,2.0,83,0.00,,---,0.00,VWS V14.01,2013-03-18 14:00:00,
2013-03-18 07:05:00,39.9,35.2,30.07,NNW,331,0.0,2.0,83,0.00,,---,0.00,VWS V14.01,2013-03-18 14:05:00,
2013-03-18 07:10:00,39.9,35.5,30.06,NNW,331,0.0,2.0,84,0.00,,---,0.00,VWS V14.01,2013-03-18 14:10:00,
2013-03-18 07:16:00,40.0,35.6,30.08,NNW,331,0.0,2.0,84,0.00,,---,0.00,VWS V14.01,2013-03-18 14:16:00,
2013-03-18 07:21:00,40.1,35.7,30.08,NNW,331,0.0,2.0,84,0.00,,---,0.00,VWS V14.01,2013-03-18 14:21:00,
2013-03-18 07:26:00,40.1,35.7,30.08,NNW,331,0.0,2.0,84,0.00,,---,0.00,VWS V14.01,2013-03-18 14:26:00,
2013-03-18 07:31:00,40.0,35.9,30.07,NNW,331,0.0,0.0,85,0.00,,---,0.00,VWS V14.01,2013-03-18 14:31:00,
2013-03-18 07:37:00,40.2,36.1,30.08,NNW,331,0.0,0.0,85,0.00,,---,0.00,VWS V14.01,2013-03-18 14:37:00,
2013-03-18 07:42:00,40.1,35.7,30.08,NNW,331,0.0,1.0,84,0.00,,---,0.00,VWS V14.01,2013-03-18 14:42:00,
2013-03-18 07:47:00,40.2,35.8,30.08,NNW,331,0.0,1.0,84,0.00,,---,0.00,VWS V14.01,2013-03-18 14:47:00,
2013-03-18 07:52:00,40.0,35.3,30.09,NNW,331,0.0,2.0,83,0.00,,---,0.00,VWS V14.01,2013-03-18 14:52:00,
2013-03-18 07:57:00,40.2,35.8,30.10,NNW,331,2.0,3.0,84,0.00,,---,0.00,VWS V14.01,2013-03-18 14:57:00,
2013-03-18 08:02:00,40.2,35.8,30.08,NNW,331,1.0,3.0,84,0.00,,---,0.00,VWS V14.01,2013-03-18 15:02:00,
2013-03-18 08:07:00,40.5,36.0,30.11,NNW,331,0.0,3.0,84,0.00,,---,0.00,VWS V14.01,2013-03-18 15:07:00,
2013-03-18 08:12:00,40.9,36.8,30.09,NNW,331,2.0,4.0,85,0.00,,---,0.00,VWS V14.01,2013-03-18 15:12:00,
2013-03-18 08:17:00,41.3,37.4,30.10,NNW,331,0.0,4.0,86,0.00,,---,0.00,VWS V14.01,2013-03-18 15:17:00,
2013-03-18 08:22:00,41.6,38.0,30.09,NNW,331,0.0,4.0,87,0.00,,---,0.00,VWS V14.01,2013-03-18 15:22:00,
2013-03-18 08:27:00,42.2,38.6,30.09,NNW,331,0.0,4.0,87,0.00,,---,0.00,VWS V14.01,2013-03-18 15:27:00,
2013-03-18 08:33:00,42.6,38.7,30.10,NNW,331,0.0,2.0,86,0.00,,---,0.00,VWS V14.01,2013-03-18 15:33:00,
2013-03-18 08:38:00,43.0,39.1,30.09,NNW,331,1.0,3.0,86,0.00,,---,0.00,VWS V14.01,2013-03-18 15:38:00,
2013-03-18 08:43:00,43.6,39.4,30.09,NNW,331,0.0,3.0,85,0.00,,---,0.00,VWS V14.01,2013-03-18 15:43:00,
2013-03-18 08:48:00,44.1,39.9,30.10,NNW,331,0.0,3.0,85,0.00,,---,0.00,VWS V14.01,2013-03-18 15:48:00,
2013-03-18 08:53:00,44.5,40.3,30.10,NNW,331,0.0,3.0,85,0.00,,---,0.00,VWS V14.01,2013-03-18 15:53:00,
2013-03-18 08:58:00,45.2,41.0,30.12,NNW,331,0.0,3.0,85,0.00,,---,0.00,VWS V14.01,2013-03-18 15:58:00,
2013-03-18 09:03:00,45.7,40.8,30.07,NNW,331,1.0,2.0,83,0.00,,---,0.00,VWS V14.01,2013-03-18 16:03:00,
2013-03-18 09:08:00,46.3,41.7,30.10,NNW,331,0.0,3.0,84,0.00,,---,0.00,VWS V14.01,2013-03-18 16:08:00,
2013-03-18 09:13:00,46.9,41.7,30.08,NNW,331,1.0,3.0,82,0.00,,---,0.00,VWS V14.01,2013-03-18 16:13:00,
2013-03-18 09:18:00,47.5,42.0,30.14,NNW,331,0.0,3.0,81,0.00,,---,0.00,VWS V14.01,2013-03-18 16:18:00,
2013-03-18 09:23:00,47.9,42.0,30.08,NNW,331,0.0,3.0,80,0.00,,---,0.00,VWS V14.01,2013-03-18 16:23:00,
2013-03-18 09:28:00,48.3,42.1,30.09,NNW,331,2.0,3.0,79,0.00,,---,0.00,VWS V14.01,2013-03-18 16:28:00,
2013-03-18 09:33:00,48.6,42.4,30.10,NNW,331,0.0,3.0,79,0.00,,---,0.00,VWS V14.01,2013-03-18 16:33:00,
2013-03-18 09:38:00,49.3,42.7,30.10,NNW,331,0.0,4.0,78,0.00,,---,0.00,VWS V14.01,2013-03-18 16:38:00,
2013-03-18 09:44:00,49.8,43.2,30.08,NNW,331,0.0,4.0,78,0.00,,---,0.00,VWS V14.01,2013-03-18 16:44:00,
2013-03-18 09:49:00,50.3,43.4,30.10,NNW,331,0.0,4.0,77,0.00,,---,0.00,VWS V14.01,2013-03-18 16:49:00,
2013-03-18 09:54:00,50.5,42.9,30.10,NNW,331,0.0,4.0,75,0.00,,---,0.00,VWS V14.01,2013-03-18 16:54:00,
2013-03-18 09:59:00,50.7,43.1,30.12,NNW,331,1.0,4.0,75,0.00,,---,0.00,VWS V14.01,2013-03-18 16:59:00,
2013-03-18 10:04:00,50.8,43.2,30.11,NNW,331,1.0,2.0,75,0.00,,---,0.00,VWS V14.01,2013-03-18 17:04:00,
2013-03-18 10:09:00,51.0,43.4,30.11,NNW,331,0.0,2.0,75,0.00,,---,0.00,VWS V14.01,2013-03-18 17:09:00,
2013-03-18 10:14:00,51.5,43.5,30.09,NNW,331,0.0,2.0,74,0.00,,---,0.00,VWS V14.01,2013-03-18 17:14:00,
2013-03-18 10:19:00,52.0,43.6,30.11,NNW,331,0.0,2.0,73,0.00,,---,0.00,VWS V14.01,2013-03-18 17:19:00,
2013-03-18 10:24:00,52.5,43.8,30.09,NNW,331,2.0,3.0,72,0.00,,---,0.00,VWS V14.01,2013-03-18 17:24:00,
2013-03-18 10:29:00,52.8,43.3,30.09,NNW,331,0.0,3.0,70,0.00,,---,0.00,VWS V14.01,2013-03-18 17:29:00,
2013-03-18 10:34:00,53.3,43.8,30.11,NNW,331,0.0,2.0,70,0.00,,---,0.00,VWS V14.01,2013-03-18 17:34:00,
2013-03-18 10:39:00,53.9,44.3,30.09,NNW,331,2.0,2.0,70,0.00,,---,0.00,VWS V14.01,2013-03-18 17:39:00,
2013-03-18 10:44:00,54.6,44.3,30.09,NNW,331,0.0,2.0,68,0.00,,---,0.00,VWS V14.01,2013-03-18 17:44:00,
2013-03-18 10:49:00,55.0,44.3,30.11,NNW,331,0.0,3.0,67,0.00,,---,0.00,VWS V14.01,2013-03-18 17:49:00,
2013-03-18 10:54:00,55.5,43.5,30.12,NNW,331,0.0,3.0,64,0.00,,---,0.00,VWS V14.01,2013-03-18 17:54:00,
2013-03-18 10:59:00,56.0,44.0,30.12,NNW,331,1.0,3.0,64,0.00,,---,0.00,VWS V14.01,2013-03-18 17:59:00,
2013-03-18 11:04:00,56.1,44.5,30.10,NNW,331,2.0,3.0,65,0.00,,---,0.00,VWS V14.01,2013-03-18 18:04:00,
2013-03-18 11:09:00,56.4,44.4,30.09,NNW,331,1.0,4.0,64,0.00,,---,0.00,VWS V14.01,2013-03-18 18:09:00,
2013-03-18 11:15:00,56.9,43.6,30.09,NNW,331,1.0,4.0,61,0.00,,---,0.00,VWS V14.01,2013-03-18 18:15:00,
2013-03-18 11:20:00,57.3,44.0,30.08,NNW,331,1.0,4.0,61,0.00,,---,0.00,VWS V14.01,2013-03-18 18:20:00,
2013-03-18 11:25:00,57.9,43.7,30.12,NNW,331,1.0,4.0,59,0.00,,---,0.00,VWS V14.01,2013-03-18 18:25:00,
2013-03-18 11:30:00,58.6,43.4,30.11,NNW,331,1.0,2.0,57,0.00,,---,0.00,VWS V14.01,2013-03-18 18:30:00,
2013-03-18 11:35:00,58.8,44.1,30.08,NNW,331,2.0,4.0,58,0.00,,---,0.00,VWS V14.01,2013-03-18 18:35:00,
2013-03-18 11:40:00,58.8,43.2,30.07,NNW,331,0.0,4.0,56,0.00,,---,0.00,VWS V14.01,2013-03-18 18:40:00,
2013-03-18 11:45:00,59.0,43.8,30.07,NNW,331,1.0,4.0,57,0.00,,---,0.00,VWS V14.01,2013-03-18 18:45:00,
2013-03-18 11:50:00,59.3,43.6,30.11,NNW,331,0.0,4.0,56,0.00,,---,0.00,VWS V14.01,2013-03-18 18:50:00,
2013-03-18 11:55:00,59.6,43.4,30.10,NNW,331,0.0,4.0,55,0.00,,---,0.00,VWS V14.01,2013-03-18 18:55:00,
2013-03-18 12:00:00,60.0,44.7,30.10,NNW,331,3.0,4.0,57,0.00,,---,0.00,VWS V14.01,2013-03-18 19:00:00,
2013-03-18 12:05:00,60.6,43.9,30.08,NNW,331,0.0,4.0,54,0.00,,---,0.00,VWS V14.01,2013-03-18 19:05:00,
2013-03-18 12:10:00,61.0,45.2,30.09,NNW,331,1.0,4.0,56,0.00,,---,0.00,VWS V14.01,2013-03-18 19:10:00,
2013-03-18 12:15:00,61.3,45.0,30.10,NNW,331,1.0,4.0,55,0.00,,---,0.00,VWS V14.01,2013-03-18 19:15:00,
2013-03-18 12:21:00,61.6,46.2,30.09,NNW,331,1.0,4.0,57,0.00,,---,0.00,VWS V14.01,2013-03-18 19:21:00,
2013-03-18 12:26:00,62.1,45.3,30.09,NNW,331,0.0,4.0,54,0.00,,---,0.00,VWS V14.01,2013-03-18 19:26:00,
2013-03-18 12:31:00,62.4,47.0,30.07,NNW,331,2.0,3.0,57,0.00,,---,0.00,VWS V14.01,2013-03-18 19:31:00,
2013-03-18 12:36:00,62.9,47.0,30.08,NNW,331,1.0,3.0,56,0.00,,---,0.00,VWS V14.01,2013-03-18 19:36:00,
2013-03-18 12:41:00,63.3,46.9,30.07,NNW,331,1.0,3.0,55,0.00,,---,0.00,VWS V14.01,2013-03-18 19:41:00,
2013-03-18 12:46:00,63.6,47.2,30.06,NNW,331,1.0,5.0,55,0.00,,---,0.00,VWS V14.01,2013-03-18 19:46:00,
2013-03-18 12:52:00,64.0,47.0,30.06,NNW,331,0.0,5.0,54,0.00,,---,0.00,VWS V14.01,2013-03-18 19:52:00,
2013-03-18 12:57:00,64.5,47.5,30.08,NNW,331,2.0,5.0,54,0.00,,---,0.00,VWS V14.01,2013-03-18 19:57:00,
2013-03-18 13:02:00,64.9,47.9,30.08,NNW,331,2.0,3.0,54,0.00,,---,0.00,VWS V14.01,2013-03-18 20:02:00,
2013-03-18 13:07:00,65.1,47.1,30.07,NNW,331,2.0,3.0,52,0.00,,---,0.00,VWS V14.01,2013-03-18 20:07:00,
2013-03-18 13:12:00,65.3,47.2,30.06,NNW,331,0.0,3.0,52,0.00,,---,0.00,VWS V14.01,2013-03-18 20:12:00,
2013-03-18 13:17:00,65.4,46.8,30.05,NNW,331,2.0,7.0,51,0.00,,---,0.00,VWS V14.01,2013-03-18 20:17:00,
2013-03-18 13:22:00,65.6,46.5,30.07,NNW,331,0.0,7.0,50,0.00,,---,0.00,VWS V14.01,2013-03-18 20:22:00,
2013-03-18 13:27:00,65.8,47.2,30.04,NNW,331,3.0,7.0,51,0.00,,---,0.00,VWS V14.01,2013-03-18 20:27:00,
2013-03-18 13:32:00,66.1,47.5,30.05,ESE,104,1.0,4.0,51,0.00,,---,0.00,VWS V14.01,2013-03-18 20:32:00,
2013-03-18 13:37:00,66.2,46.5,30.08,SE,129,0.0,5.0,49,0.00,,---,0.00,VWS V14.01,2013-03-18 20:37:00,
2013-03-18 13:42:00,66.6,46.9,30.08,SE,132,3.0,5.0,49,0.00,,---,0.00,VWS V14.01,2013-03-18 20:42:00,
2013-03-18 13:47:00,66.6,46.9,30.04,SE,132,0.0,5.0,49,0.00,,---,0.00,VWS V14.01,2013-03-18 20:47:00,
2013-03-18 13:53:00,66.7,47.0,30.06,SE,132,1.0,5.0,49,0.00,,---,0.00,VWS V14.01,2013-03-18 20:53:00,
2013-03-18 13:58:00,66.8,47.0,30.07,SE,131,1.0,5.0,49,0.00,,---,0.00,VWS V14.01,2013-03-18 20:58:00,
2013-03-18 14:03:00,67.1,46.8,30.05,SE,131,1.0,5.0,48,0.00,,---,0.00,VWS V14.01,2013-03-18 21:03:00,
2013-03-18 14:08:00,67.1,47.3,30.04,SE,131,0.0,5.0,49,0.00,,---,0.00,VWS V14.01,2013-03-18 21:08:00,
2013-03-18 14:13:00,67.1,46.2,30.05,SE,131,0.0,5.0,47,0.00,,---,0.00,VWS V14.01,2013-03-18 21:13:00,
2013-03-18 14:18:00,67.0,46.7,30.04,SE,131,2.0,5.0,48,0.00,,---,0.00,VWS V14.01,2013-03-18 21:18:00,
2013-03-18 14:23:00,67.0,47.2,30.04,SE,131,0.0,5.0,49,0.00,,---,0.00,VWS V14.01,2013-03-18 21:23:00,
2013-03-18 14:28:00,67.2,46.3,30.06,SE,131,2.0,5.0,47,0.00,,---,0.00,VWS V14.01,2013-03-18 21:28:00,
2013-03-18 14:33:00,67.0,46.7,30.05,SE,131,2.0,3.0,48,0.00,,---,0.00,VWS V14.01,2013-03-18 21:33:00,
2013-03-18 14:38:00,67.2,46.9,30.03,SE,131,1.0,3.0,48,0.00,,---,0.00,VWS V14.01,2013-03-18 21:38:00,
2013-03-18 14:43:00,67.2,47.4,30.04,SE,132,1.0,3.0,49,0.00,,---,0.00,VWS V14.01,2013-03-18 21:43:00,
2013-03-18 14:48:00,67.2,48.0,30.03,North,2,3.0,5.0,50,0.00,,---,0.00,VWS V14.01,2013-03-18 21:48:00,
2013-03-18 14:53:00,67.1,47.3,30.03,NW,319,1.0,5.0,49,0.00,,---,0.00,VWS V14.01,2013-03-18 21:53:00,
2013-03-18 14:58:00,67.0,47.8,30.02,NW,319,3.0,5.0,50,0.00,,---,0.00,VWS V14.01,2013-03-18 21:58:00,
2013-03-18 15:03:00,67.0,46.7,30.03,NW,314,2.0,5.0,48,0.00,,---,0.00,VWS V14.01,2013-03-18 22:03:00,
2013-03-18 15:09:00,66.9,46.6,30.03,NW,314,0.0,5.0,48,0.00,,---,0.00,VWS V14.01,2013-03-18 22:09:00,
2013-03-18 15:14:00,66.8,47.0,30.04,WNW,292,2.0,5.0,49,0.00,,---,0.00,VWS V14.01,2013-03-18 22:14:00,
2013-03-18 16:10:00,65.6,46.5,30.03,North,354,2.0,7.0,50,0.00,,---,0.00,VWS V14.01,2013-03-18 23:10:00,
2013-03-18 16:15:00,65.6,46.5,30.04,NNW,335,2.0,7.0,50,0.00,,---,0.00,VWS V14.01,2013-03-18 23:15:00,
2013-03-18 16:20:00,65.6,46.5,30.03,NNW,335,1.0,7.0,50,0.00,,---,0.00,VWS V14.01,2013-03-18 23:20:00,
2013-03-18 16:25:00,65.8,47.2,30.03,NNW,346,2.0,7.0,51,0.00,,---,0.00,VWS V14.01,2013-03-18 23:25:00,
2013-03-18 16:30:00,65.9,47.3,30.04,NNW,348,3.0,4.0,51,0.00,,---,0.00,VWS V14.01,2013-03-18 23:30:00,
2013-03-18 16:35:00,65.9,47.8,30.03,NNW,345,2.0,6.0,52,0.00,,---,0.00,VWS V14.01,2013-03-18 23:35:00,
2013-03-18 16:40:00,65.9,47.3,30.04,NNW,345,1.0,6.0,51,0.00,,---,0.00,VWS V14.01,2013-03-18 23:40:00,
2013-03-18 16:45:00,65.8,47.2,30.04,NNW,342,2.0,6.0,51,0.00,,---,0.00,VWS V14.01,2013-03-18 23:45:00,
2013-03-18 16:51:00,65.7,46.6,30.01,NNW,344,3.0,6.0,50,0.00,,---,0.00,VWS V14.01,2013-03-18 23:51:00,
2013-03-18 16:56:00,65.4,46.3,30.03,NNW,344,1.0,6.0,50,0.00,,---,0.00,VWS V14.01,2013-03-18 23:56:00,
2013-03-18 17:01:00,65.3,45.7,30.04,NNW,328,2.0,3.0,49,0.00,,---,0.00,VWS V14.01,2013-03-19 00:01:00,
2013-03-18 17:06:00,65.1,46.0,30.03,NNW,328,0.0,4.0,50,0.00,,---,0.00,VWS V14.01,2013-03-19 00:06:00,
2013-03-18 17:11:00,65.1,46.5,30.01,NNW,329,2.0,5.0,51,0.00,,---,0.00,VWS V14.01,2013-03-19 00:11:00,
2013-03-18 17:16:00,65.2,46.1,30.04,NNW,329,1.0,5.0,50,0.00,,---,0.00,VWS V14.01,2013-03-19 00:16:00,
2013-03-18 17:22:00,65.1,46.5,30.03,NNW,346,4.0,5.0,51,0.00,,---,0.00,VWS V14.01,2013-03-19 00:22:00,
2013-03-18 17:27:00,64.9,46.4,30.02,North,350,2.0,5.0,51,0.00,,---,0.00,VWS V14.01,2013-03-19 00:27:00,
2013-03-18 17:32:00,64.8,46.3,30.01,North,351,2.0,6.0,51,0.00,,---,0.00,VWS V14.01,2013-03-19 00:32:00,
2013-03-18 17:37:00,64.7,45.7,30.02,North,351,2.0,6.0,50,0.00,,---,0.00,VWS V14.01,2013-03-19 00:37:00,
2013-03-18 17:43:00,64.5,45.5,30.01,NNW,342,3.0,7.0,50,0.00,,---,0.00,VWS V14.01,2013-03-19 00:43:00,
2013-03-18 17:48:00,64.3,45.3,30.01,NNW,344,4.0,7.0,50,0.00,,---,0.00,VWS V14.01,2013-03-19 00:48:00,
2013-03-18 17:53:00,64.0,45.5,30.05,NNW,344,2.0,7.0,51,0.00,,---,0.00,VWS V14.01,2013-03-19 00:53:00,
2013-03-18 17:58:00,63.7,44.7,30.03,NNW,344,1.0,7.0,50,0.00,,---,0.00,VWS V14.01,2013-03-19 00:58:00,
2013-03-18 18:03:00,63.7,44.7,30.01,NNW,340,2.0,5.0,50,0.00,,---,0.00,VWS V14.01,2013-03-19 01:03:00,
2013-03-18 18:08:00,63.5,45.1,30.02,NNW,340,1.0,5.0,51,0.00,,---,0.00,VWS V14.01,2013-03-19 01:08:00,
2013-03-18 18:13:00,63.4,45.0,30.04,NNW,340,2.0,5.0,51,0.00,,---,0.00,VWS V14.01,2013-03-19 01:13:00,
2013-03-18 18:18:00,63.1,44.7,30.01,NNW,340,5.0,5.0,51,0.00,,---,0.00,VWS V14.01,2013-03-19 01:18:00,
2013-03-18 18:23:00,62.9,45.0,30.03,NNW,340,0.0,5.0,52,0.00,,---,0.00,VWS V14.01,2013-03-19 01:23:00,
2013-03-18 18:28:00,62.7,45.3,30.02,NNW,340,2.0,5.0,53,0.00,,---,0.00,VWS V14.01,2013-03-19 01:28:00,
2013-03-18 18:33:00,62.4,45.5,30.00,NNW,340,1.0,4.0,54,0.00,,---,0.00,VWS V14.01,2013-03-19 01:33:00,
2013-03-18 18:39:00,62.3,46.0,30.03,WNW,289,3.0,6.0,55,0.00,,---,0.00,VWS V14.01,2013-03-19 01:39:00,
2013-03-18 18:44:00,61.9,45.6,30.03,WNW,287,1.0,7.0,55,0.00,,---,0.00,VWS V14.01,2013-03-19 01:44:00,
2013-03-18 18:49:00,61.6,45.8,30.01,NW,324,1.0,7.0,56,0.00,,---,0.00,VWS V14.01,2013-03-19 01:49:00,
2013-03-18 18:54:00,61.2,45.4,30.06,West,277,2.0,7.0,56,0.00,,---,0.00,VWS V14.01,2013-03-19 01:54:00,
2013-03-18 18:59:00,61.1,45.3,30.06,SW,230,5.0,7.0,56,0.00,,---,0.00,VWS V14.01,2013-03-19 01:59:00,
2013-03-18 19:04:00,60.8,45.0,30.02,NW,306,3.0,6.0,56,0.00,,---,0.00,VWS V14.01,2013-03-19 02:04:00,
2013-03-18 19:09:00,60.7,45.8,30.05,NW,326,1.0,6.0,58,0.00,,---,0.00,VWS V14.01,2013-03-19 02:09:00,
2013-03-18 19:14:00,60.4,45.6,30.07,NW,322,2.0,6.0,58,0.00,,---,0.00,VWS V14.01,2013-03-19 02:14:00,
2013-03-18 19:19:00,60.2,45.4,30.05,NNW,329,2.0,6.0,58,0.00,,---,0.00,VWS V14.01,2013-03-19 02:19:00,
2013-03-18 19:24:00,59.8,45.0,30.05,NNW,329,0.0,6.0,58,0.00,,---,0.00,VWS V14.01,2013-03-19 02:24:00,
2013-03-18 19:29:00,59.8,45.0,30.06,NNW,329,2.0,6.0,58,0.00,,---,0.00,VWS V14.01,2013-03-19 02:29:00,
2013-03-18 19:34:00,59.7,44.5,30.04,NNW,329,2.0,4.0,57,0.00,,---,0.00,VWS V14.01,2013-03-19 02:34:00,
2013-03-18 19:39:00,59.6,44.8,30.07,NNW,329,1.0,4.0,58,0.00,,---,0.00,VWS V14.01,2013-03-19 02:39:00,
2013-03-18 19:44:00,59.4,44.2,30.04,NNW,329,0.0,4.0,57,0.00,,---,0.00,VWS V14.01,2013-03-19 02:44:00,
2013-03-18 19:50:00,59.2,44.5,30.04,NNW,329,0.0,4.0,58,0.00,,---,0.00,VWS V14.01,2013-03-19 02:50:00,
2013-03-18 19:55:00,59.1,43.9,30.06,NNW,339,2.0,4.0,57,0.00,,---,0.00,VWS V14.01,2013-03-19 02:55:00,
2013-03-18 20:00:00,58.9,44.2,30.07,NNW,348,2.0,4.0,58,0.00,,---,0.00,VWS V14.01,2013-03-19 03:00:00,
2013-03-18 20:05:00,58.6,43.9,30.07,NW,317,2.0,6.0,58,0.00,,---,0.00,VWS V14.01,2013-03-19 03:05:00,
2013-03-18 20:10:00,58.3,43.6,30.10,NW,317,1.0,6.0,58,0.00,,---,0.00,VWS V14.01,2013-03-19 03:10:00,
2013-03-18 20:15:00,58.2,43.5,30.09,NW,317,0.0,6.0,58,0.00,,---,0.00,VWS V14.01,2013-03-19 03:15:00,
2013-03-18 20:20:00,58.0,41.9,30.08,NNW,343,2.0,6.0,55,0.00,,---,0.00,VWS V14.01,2013-03-19 03:20:00,
2013-03-18 20:25:00,57.6,40.1,30.09,WNW,301,3.0,8.0,52,0.00,,---,0.00,VWS V14.01,2013-03-19 03:25:00,
2013-03-18 20:30:00,57.2,40.2,30.10,SE,142,0.0,2.0,53,0.00,,---,0.00,VWS V14.01,2013-03-19 03:30:00,
2013-03-18 20:35:00,56.7,41.2,30.10,SW,215,3.0,7.0,56,0.00,,---,0.00,VWS V14.01,2013-03-19 03:35:00,
2013-03-18 20:40:00,56.1,41.5,30.09,SW,227,2.0,7.0,58,0.00,,---,0.00,VWS V14.01,2013-03-19 03:40:00,
2013-03-18 20:45:00,55.2,40.7,30.07,NNW,330,2.0,7.0,58,0.00,,---,0.00,VWS V14.01,2013-03-19 03:45:00,
2013-03-18 20:50:00,54.6,40.6,30.07,North,359,3.0,7.0,59,0.00,,---,0.00,VWS V14.01,2013-03-19 03:50:00,
2013-03-18 20:56:00,54.2,40.6,30.08,North,355,3.0,7.0,60,0.00,,---,0.00,VWS V14.01,2013-03-19 03:56:00,
2013-03-18 21:00:00,53.8,40.7,30.08,NNW,333,3.0,3.0,61,0.00,,---,0.00,VWS V14.01,2013-03-19 04:00:00,
2013-03-18 21:06:00,53.1,41.3,30.08,North,350,4.0,8.0,64,0.00,,---,0.00,VWS V14.01,2013-03-19 04:06:00,
2013-03-18 21:11:00,52.6,41.2,30.08,North,353,3.0,8.0,65,0.00,,---,0.00,VWS V14.01,2013-03-19 04:11:00,
2013-03-18 21:16:00,52.3,40.9,30.09,NNW,343,0.0,8.0,65,0.00,,---,0.00,VWS V14.01,2013-03-19 04:16:00,
2013-03-18 21:22:00,52.2,40.8,30.09,North,357,1.0,8.0,65,0.00,,---,0.00,VWS V14.01,2013-03-19 04:22:00,
2013-03-18 21:27:00,52.1,41.1,30.07,North,357,0.0,8.0,66,0.00,,---,0.00,VWS V14.01,2013-03-19 04:27:00,
2013-03-18 21:32:00,52.2,41.2,30.10,North,357,0.0,3.0,66,0.00,,---,0.00,VWS V14.01,2013-03-19 04:32:00,
2013-03-18 21:37:00,52.0,41.8,30.08,North,349,4.0,6.0,68,0.00,,---,0.00,VWS V14.01,2013-03-19 04:37:00,
2013-03-18 21:42:00,51.7,41.9,30.10,NNE,28,2.0,7.0,69,0.00,,---,0.00,VWS V14.01,2013-03-19 04:42:00,
2013-03-18 21:47:00,51.3,42.2,30.10,North,350,8.0,12.0,71,0.00,,---,0.00,VWS V14.01,2013-03-19 04:47:00,
2013-03-18 21:52:00,50.8,42.5,30.09,West,262,3.0,12.0,73,0.00,,---,0.00,VWS V14.01,2013-03-19 04:52:00,
2013-03-18 21:57:00,50.4,42.4,30.13,West,273,0.0,12.0,74,0.00,,---,0.00,VWS V14.01,2013-03-19 04:57:00,
2013-03-18 22:02:00,50.4,42.4,30.10,West,277,1.0,7.0,74,0.00,,---,0.00,VWS V14.01,2013-03-19 05:02:00,
2013-03-18 22:07:00,50.4,42.8,30.10,NW,305,5.0,7.0,75,0.00,,---,0.00,VWS V14.01,2013-03-19 05:07:00,
2013-03-18 22:12:00,50.4,42.8,30.11,NNW,334,1.0,7.0,75,0.00,,---,0.00,VWS V14.01,2013-03-19 05:12:00,
2013-03-18 22:17:00,50.4,42.8,30.10,NNW,335,1.0,7.0,75,0.00,,---,0.00,VWS V14.01,2013-03-19 05:17:00,
2013-03-18 22:22:00,50.3,42.3,30.10,NNW,335,1.0,7.0,74,0.00,,---,0.00,VWS V14.01,2013-03-19 05:22:00,
2013-03-18 22:27:00,50.4,42.8,30.12,NNW,335,2.0,7.0,75,0.00,,---,0.00,VWS V14.01,2013-03-19 05:27:00,
2013-03-18 22:32:00,50.4,42.8,30.11,NNW,335,1.0,3.0,75,0.00,,---,0.00,VWS V14.01,2013-03-19 05:32:00,
2013-03-18 22:37:00,50.4,42.8,30.11,NNW,335,2.0,4.0,75,0.00,,---,0.00,VWS V14.01,2013-03-19 05:37:00,
2013-03-18 22:43:00,50.6,43.0,30.11,NNW,335,1.0,4.0,75,0.00,,---,0.00,VWS V14.01,2013-03-19 05:43:00,
2013-03-18 22:48:00,50.5,42.9,30.10,NNW,335,0.0,4.0,75,0.00,,---,0.00,VWS V14.01,2013-03-19 05:48:00,
2013-03-18 22:53:00,50.5,42.9,30.13,NNW,335,0.0,4.0,75,0.00,,---,0.00,VWS V14.01,2013-03-19 05:53:00,
2013-03-18 22:58:00,50.5,43.2,30.11,NNW,335,0.0,4.0,76,0.00,,---,0.00,VWS V14.01,2013-03-19 05:58:00,
2013-03-18 23:03:00,50.5,42.9,30.09,NNW,335,0.0,2.0,75,0.00,,---,0.00,VWS V14.01,2013-03-19 06:03:00,
2013-03-18 23:08:00,50.8,43.2,30.13,NNW,335,1.0,2.0,75,0.00,,---,0.00,VWS V14.01,2013-03-19 06:08:00,
2013-03-18 23:13:00,50.7,43.1,30.13,NNW,335,0.0,2.0,75,0.00,,---,0.00,VWS V14.01,2013-03-19 06:13:00,
2013-03-18 23:18:00,50.9,43.3,30.11,NNW,335,0.0,2.0,75,0.00,,---,0.00,VWS V14.01,2013-03-19 06:18:00,
2013-03-18 23:23:00,50.8,43.5,30.12,NNW,335,0.0,2.0,76,0.00,,---,0.00,VWS V14.01,2013-03-19 06:23:00,
2013-03-18 23:28:00,51.0,43.7,30.10,NNW,335,0.0,3.0,76,0.00,,---,0.00,VWS V14.01,2013-03-19 06:28:00,
2013-03-18 23:33:00,50.9,43.6,30.11,NNW,335,2.0,3.0,76,0.00,,---,0.00,VWS V14.01,2013-03-19 06:33:00,
2013-03-18 23:38:00,51.0,43.7,30.12,NNW,335,2.0,4.0,76,0.00,,---,0.00,VWS V14.01,2013-03-19 06:38:00,
2013-03-18 23:43:00,50.8,44.2,30.11,NNW,335,1.0,5.0,78,0.00,,---,0.00,VWS V14.01,2013-03-19 06:43:00,
2013-03-18 23:49:00,50.8,43.9,30.08,NNW,335,0.0,5.0,77,0.00,,---,0.00,VWS V14.01,2013-03-19 06:49:00,
2013-03-18 23:54:00,50.6,44.0,30.12,NNW,335,0.0,5.0,78,0.00,,---,0.00,VWS V14.01,2013-03-19 06:54:00,
2013-03-18 23:59:00,50.4,43.8,30.09,NNW,335,1.0,5.0,78,0.00,,---,0.00,VWS V14.01,2013-03-19 06:59:00,